createdAt,value
2023-02-24T08:07:37.424Z,15.90
2023-02-24T08:10:25.662Z,16.17
2023-02-24T08:13:12.204Z,15.38
2023-02-24T08:15:58.073Z,12.15
2023-02-24T08:18:49.112Z,14.68
2023-02-24T08:21:38.937Z,12.88
2023-02-24T08:24:30.557Z,12.18
2023-02-24T08:27:21.082Z,11.60
2023-02-24T08:30:07.946Z,13.77
2023-02-24T08:32:57.423Z,10.60
2023-02-24T08:35:45.327Z,10.48
2023-02-24T08:38:40.770Z,9.75
2023-02-24T08:41:44.987Z,10.25
2023-02-24T08:44:31.409Z,10.68
2023-02-24T08:47:21.335Z,9.73
2023-02-24T08:50:07.261Z,8.93
2023-02-24T08:52:52.623Z,9.57
2023-02-24T08:55:39.970Z,10.35
2023-02-24T08:58:27.296Z,8.07
2023-02-24T09:01:25.383Z,9.30
2023-02-24T09:04:19.109Z,8.95
2023-02-24T09:07:12.100Z,8.07
2023-02-24T09:09:59.816Z,8.35
2023-02-24T09:12:45.007Z,7.37
2023-02-24T09:15:41.485Z,7.87
2023-02-24T09:18:31.448Z,8.20
2023-02-24T09:21:36.679Z,7.78
2023-02-24T09:24:27.977Z,8.00
2023-02-24T09:27:21.246Z,8.40
2023-02-24T09:30:08.301Z,7.87
2023-02-24T09:33:01.205Z,11.98
2023-02-24T09:36:03.485Z,7.60
2023-02-24T09:39:00.798Z,6.93
2023-02-24T09:42:08.190Z,6.72
2023-02-24T09:44:56.531Z,7.82
2023-02-24T09:47:56.832Z,6.70
2023-02-24T09:51:04.523Z,6.47
2023-02-24T09:53:53.325Z,8.05
2023-02-24T09:56:43.023Z,6.65
2023-02-24T09:59:39.878Z,6.12
2023-02-24T10:03:00.224Z,5.85
2023-02-24T10:06:02.780Z,5.72
2023-02-24T10:08:52.668Z,5.20
2023-02-24T10:11:53.907Z,5.43
2023-02-24T10:15:15.816Z,5.25
2023-02-24T10:18:28.328Z,5.53
2023-02-24T10:21:48.657Z,5.45
2023-02-24T10:24:49.114Z,6.37
2023-02-24T10:27:44.365Z,5.45
2023-02-24T10:31:04.143Z,5.43
2023-02-24T10:33:54.815Z,5.03
2023-02-24T10:36:40.914Z,4.55
2023-02-24T10:39:30.205Z,5.05
2023-02-24T10:42:31.817Z,6.15
